Jamaica, IA (50128)

9:28 PM CDT on October 20, 2014 (GMT -0500)
Perry Municipal | Change Station
CLOSE
Current Station
Airport
Location: Perry,
Elevation: 1014 ft
Nearby Weather Stations

Elev 1014 ft 41.83 °N, 94.16 °W | Updated 13 minutes ago

Clear
Clear
49 °F
Feels Like 49 °F
N
6
Wind Variable Wind from West

Today
High -- | Low -- °F
--% Chance of Precip.
Yesterday
High -- | Low -- °F
Precip. -- in
7:35 AM 6:28 PM
Waning Crescent, 8% visible
Pressure 30.04 in
Visibility 10.0 miles
Clouds Clear
Dew Point 40 °F
Humidity 74%
Rainfall 0.00 in
Snow Depth Not available.
UV 0 out of 12
Pollen 2.00 out of 12
Air Quality Not available.
Flu Activity Sporadic
METAR KPRO 210215Z AUTO 27005KT 10SM CLR 09/05 A3004 RMK AO2 T00920047

More Conditions Fewer Conditions

Pressure 30.04 in
Visibility 10.0 miles
Clouds Clear
Dew Point 40 °F
Humidity 74%
Rainfall 0.00 in
Snow Depth Not available.
UV 0 out of 12
Pollen 2.00 out of 12
Air Quality Not available.
Flu Activity Sporadic
METAR KPRO 210215Z AUTO 27005KT 10SM CLR 09/05 A3004 RMK AO2 T00920047

More Conditions Fewer Conditions

10-Day Weather Forecast

Almanac

Astronomy

Oct. 20, 2014 Rise Set
Actual Time 7:35 AM CDT 6:28 PM CDT
Civil Twilight 7:07 AM CDT 6:56 PM CDT
Nautical Twilight 6:34 AM CDT 7:28 PM CDT
Astronomical Twilight 6:02 AM CDT 8:00 PM CDT
Moon 4:21 AM CDT (10/20) 4:53 PM CDT (10/20)
Length of Visible Light 11h 49m
Length of Day
10h 52m
Tomorrow will be 2m 38s shorter.
Waning Crescent, 8% of the Moon is Illuminated
Today
Waning Crescent
Oct 23
New
Oct 30
First Quarter
Nov 6
Full
Nov 14
Last Quarter

Today's Extremes

State Highs State Lows

Community

WunderPhotos

Upload Photos

1,763,575 photos uploaded!

Nearby

Snow Depth

Station Depth Elevation
No new snow has been reported.

Earthquake Activity

City Distance Mag. Time & Date
No recent earthquake activity has been reported nearby.
Minimum magnitude displayed is 2.5.

Coastal Water Temperatures

Place Temperature
No Stations Reporting

Nearby Weather Stations